createdAt,value
2023-02-05T00:02:24.555Z,1.67
2023-02-05T00:04:53.498Z,1.83
2023-02-05T00:07:31.014Z,1.40
2023-02-05T00:09:59.661Z,1.50
2023-02-05T00:12:28.401Z,2.90
2023-02-05T00:14:58.887Z,1.23
2023-02-05T00:17:27.379Z,0.97
2023-02-05T00:19:56.815Z,2.07
2023-02-05T00:22:25.595Z,1.00
2023-02-05T00:24:54.224Z,2.83
2023-02-05T00:27:23.041Z,1.67
2023-02-05T00:29:52.153Z,1.57
2023-02-05T00:32:22.487Z,2.33
2023-02-05T00:34:51.298Z,1.57
2023-02-05T00:37:20.097Z,1.20
2023-02-05T00:39:49.137Z,1.30
2023-02-05T00:42:17.883Z,1.83
2023-02-05T00:44:47.683Z,2.70
2023-02-05T00:47:16.170Z,4.40
2023-02-05T00:49:47.007Z,4.73
2023-02-05T00:52:15.747Z,2.40
2023-02-05T00:54:46.544Z,1.07
2023-02-05T00:57:17.636Z,1.30
2023-02-05T00:59:46.345Z,1.50
2023-02-05T01:02:15.191Z,0.90
2023-02-05T01:04:45.642Z,8.10
2023-02-05T01:07:14.021Z,6.33
2023-02-05T01:09:42.550Z,1.77
2023-02-05T01:12:17.215Z,2.13
2023-02-05T01:14:45.938Z,1.70
2023-02-05T01:17:14.700Z,1.87
2023-02-05T01:19:43.415Z,1.40
2023-02-05T01:22:13.966Z,1.33
2023-02-05T01:24:42.733Z,2.33
2023-02-05T01:27:11.908Z,1.70
2023-02-05T01:29:41.087Z,1.27
2023-02-05T01:32:10.523Z,1.90
2023-02-05T01:34:39.574Z,2.67
2023-02-05T01:37:08.154Z,2.00
2023-02-05T01:39:38.408Z,1.07
2023-02-05T01:42:16.784Z,3.27
2023-02-05T01:44:45.536Z,3.67
2023-02-05T01:47:14.119Z,1.90
2023-02-05T01:49:44.277Z,1.47
2023-02-05T01:52:16.083Z,2.37
2023-02-05T01:54:49.042Z,1.37
2023-02-05T01:57:42.705Z,3.50
2023-02-05T02:00:12.148Z,2.13
2023-02-05T02:02:40.946Z,1.27
2023-02-05T02:05:15.163Z,1.17
2023-02-05T02:07:44.037Z,1.33
2023-02-05T02:10:19.470Z,1.40
2023-02-05T02:12:49.799Z,0.93
2023-02-05T02:15:20.257Z,2.63
2023-02-05T02:17:51.734Z,4.20
2023-02-05T02:20:22.102Z,1.17
2023-02-05T02:23:00.274Z,0.97
2023-02-05T02:25:54.497Z,1.17
2023-02-05T02:28:28.730Z,3.73
2023-02-05T02:31:01.569Z,3.60
2023-02-05T02:33:36.298Z,2.50
2023-02-05T02:36:10.761Z,2.53
2023-02-05T02:38:42.906Z,2.83
2023-02-05T02:41:16.206Z,1.87
2023-02-05T02:43:50.550Z,1.53
2023-02-05T02:46:22.667Z,2.60
2023-02-05T02:48:53.038Z,4.57
2023-02-05T02:51:23.059Z,1.83
2023-02-05T02:53:54.604Z,0.90
2023-02-05T02:56:28.654Z,0.97
2023-02-05T02:59:02.707Z,3.87
2023-02-05T03:01:32.909Z,2.87
2023-02-05T03:04:06.581Z,1.37
2023-02-05T03:06:35.427Z,0.87
2023-02-05T03:09:07.988Z,1.37
2023-02-05T03:11:36.828Z,1.00
2023-02-05T03:14:06.758Z,2.00
2023-02-05T03:16:35.366Z,4.60
2023-02-05T03:19:07.735Z,2.90
2023-02-05T03:21:40.240Z,1.23
2023-02-05T03:24:09.808Z,1.63
2023-02-05T03:26:39.424Z,1.13
2023-02-05T03:29:10.763Z,1.00
2023-02-05T03:31:47.266Z,1.07
2023-02-05T03:34:26.002Z,1.43
2023-02-05T03:37:01.680Z,3.63
2023-02-05T03:39:40.845Z,1.60
2023-02-05T03:42:17.359Z,2.90
2023-02-05T03:45:04.916Z,1.87
2023-02-05T03:47:39.978Z,2.27
2023-02-05T03:50:16.772Z,3.93
2023-02-05T03:52:50.051Z,1.83
2023-02-05T03:55:21.583Z,1.43
2023-02-05T03:57:53.963Z,8.97
2023-02-05T04:00:34.504Z,7.67
2023-02-05T04:03:03.330Z,10.47
2023-02-05T04:05:32.244Z,5.17
2023-02-05T04:08:01.019Z,1.93
2023-02-05T04:10:32.772Z,1.53
2023-02-05T04:13:01.153Z,3.33
2023-02-05T04:15:30.108Z,1.33
2023-02-05T04:18:00.193Z,1.17
2023-02-05T04:20:28.811Z,1.37
2023-02-05T04:22:57.441Z,4.70
2023-02-05T04:25:25.952Z,7.17
2023-02-05T04:27:55.667Z,5.00
2023-02-05T04:30:24.556Z,1.60
2023-02-05T04:32:53.180Z,2.87
2023-02-05T04:35:32.671Z,2.80
2023-02-05T04:38:01.381Z,1.57
2023-02-05T04:40:30.237Z,1.63
2023-02-05T04:42:58.805Z,2.80
2023-02-05T04:45:31.465Z,3.27
2023-02-05T04:48:00.681Z,1.63
2023-02-05T04:50:30.845Z,0.87
2023-02-05T04:53:00.339Z,1.50
2023-02-05T04:55:32.576Z,2.77
2023-02-05T04:58:01.201Z,1.17
2023-02-05T05:00:30.927Z,0.90
2023-02-05T05:02:59.988Z,2.60
2023-02-05T05:05:31.251Z,3.50
2023-02-05T05:08:02.263Z,4.10
2023-02-05T05:10:33.587Z,8.30
2023-02-05T05:13:02.209Z,13.20
2023-02-05T05:15:30.795Z,14.37
2023-02-05T05:17:59.688Z,12.80
2023-02-05T05:20:30.043Z,7.10
2023-02-05T05:22:58.528Z,4.00
2023-02-05T05:25:32.123Z,2.50
2023-02-05T05:28:02.137Z,2.37
2023-02-05T05:30:30.941Z,8.47
2023-02-05T05:32:59.453Z,4.20
2023-02-05T05:35:28.197Z,3.33
2023-02-05T05:38:03.017Z,4.50
2023-02-05T05:40:51.317Z,3.67
2023-02-05T05:43:38.793Z,4.53
2023-02-05T05:46:08.520Z,4.47
2023-02-05T05:48:37.103Z,5.97
2023-02-05T05:51:06.038Z,46.70
2023-02-05T05:53:34.895Z,119.67
2023-02-05T05:56:05.121Z,93.07
2023-02-05T05:58:34.744Z,51.97
2023-02-05T06:01:03.364Z,17.10
2023-02-05T06:03:32.216Z,9.17
2023-02-05T06:06:02.682Z,6.97
2023-02-05T06:08:33.715Z,5.80
2023-02-05T06:11:02.316Z,3.30
2023-02-05T06:13:32.624Z,3.00
2023-02-05T06:16:01.163Z,2.33
2023-02-05T06:18:31.452Z,1.83
2023-02-05T06:20:59.885Z,7.30
2023-02-05T06:23:28.737Z,2.10
2023-02-05T06:25:57.357Z,1.63
2023-02-05T06:28:25.924Z,1.40
2023-02-05T06:30:55.909Z,2.50
2023-02-05T06:33:24.648Z,1.37
2023-02-05T06:35:55.539Z,2.70
2023-02-05T06:38:24.296Z,6.10
2023-02-05T06:44:39.122Z,3.33
2023-02-05T06:47:09.010Z,3.23
2023-02-05T06:49:37.520Z,8.67
2023-02-05T06:52:06.603Z,3.57
2023-02-05T06:54:35.471Z,4.67
2023-02-05T06:57:04.315Z,1.53
2023-02-05T06:59:32.872Z,3.40
2023-02-05T07:02:01.815Z,1.27
2023-02-05T07:04:32.342Z,1.27
2023-02-05T07:07:03.345Z,1.30
2023-02-05T07:09:32.156Z,1.50
2023-02-05T07:12:00.693Z,2.63
2023-02-05T07:14:31.716Z,3.63
2023-02-05T07:17:00.630Z,3.53
2023-02-05T07:19:29.603Z,4.13
2023-02-05T07:22:01.042Z,2.17
2023-02-05T07:24:32.028Z,6.00
2023-02-05T07:27:01.034Z,2.20
2023-02-05T07:29:29.850Z,3.77
2023-02-05T07:31:58.696Z,2.77
2023-02-05T07:34:27.598Z,2.40
2023-02-05T07:36:56.034Z,1.90
2023-02-05T07:39:30.295Z,2.40
2023-02-05T07:41:58.992Z,6.43
2023-02-05T07:44:27.601Z,4.33
2023-02-05T07:46:56.011Z,7.70
2023-02-05T07:49:27.494Z,16.53
2023-02-05T07:51:56.120Z,31.07
2023-02-05T07:54:26.079Z,24.03
2023-02-05T07:56:55.554Z,14.07
2023-02-05T07:59:24.697Z,4.63
2023-02-05T08:01:53.274Z,7.00
2023-02-05T08:04:21.816Z,5.10
2023-02-05T08:06:50.598Z,2.53
2023-02-05T08:09:19.218Z,2.27
2023-02-05T08:11:48.757Z,3.13
2023-02-05T08:14:17.557Z,2.03
2023-02-05T08:16:46.137Z,3.30
2023-02-05T08:19:16.681Z,2.90
2023-02-05T08:21:46.378Z,2.97
2023-02-05T08:24:16.973Z,1.13
2023-02-05T08:26:45.384Z,3.13
2023-02-05T08:29:15.727Z,2.83
2023-02-05T08:31:44.741Z,1.47
2023-02-05T08:34:13.301Z,1.00
2023-02-05T08:36:42.323Z,1.47
2023-02-05T08:39:11.116Z,1.30
2023-02-05T08:41:39.742Z,1.10
2023-02-05T08:44:08.579Z,1.40
2023-02-05T08:46:49.793Z,3.07
2023-02-05T08:49:19.466Z,1.60
2023-02-05T08:51:48.362Z,2.20
2023-02-05T08:54:19.478Z,2.20
2023-02-05T08:56:56.164Z,6.80
2023-02-05T08:59:27.283Z,3.40
2023-02-05T09:02:17.410Z,4.20
2023-02-05T09:04:50.232Z,6.37
2023-02-05T09:07:19.035Z,5.50
2023-02-05T09:09:48.325Z,4.97
2023-02-05T09:12:16.943Z,8.63
2023-02-05T09:14:45.726Z,3.97
2023-02-05T09:17:16.009Z,5.43
2023-02-05T09:19:44.755Z,2.40
2023-02-05T09:22:13.302Z,2.23
2023-02-05T09:24:41.876Z,3.20
2023-02-05T09:27:14.393Z,15.83
2023-02-05T09:29:43.162Z,26.83
2023-02-05T09:32:12.010Z,12.57
2023-02-05T09:34:44.314Z,7.83
2023-02-05T09:37:12.908Z,6.40
2023-02-05T09:40:19.011Z,3.07
2023-02-05T09:42:45.447Z,6.27
2023-02-05T09:45:28.357Z,6.57
2023-02-05T09:48:04.413Z,3.73
2023-02-05T09:50:38.341Z,5.40
2023-02-05T09:53:08.905Z,7.33
2023-02-05T09:55:40.285Z,6.33
2023-02-05T09:58:10.099Z,4.50
2023-02-05T10:00:46.448Z,3.80
2023-02-05T10:03:23.483Z,3.83
2023-02-05T10:06:06.231Z,2.60
2023-02-05T10:08:42.018Z,6.00
2023-02-05T10:11:19.367Z,11.03
2023-02-05T10:14:02.948Z,2.60
2023-02-05T10:16:42.834Z,2.13
2023-02-05T10:19:25.420Z,1.87
2023-02-05T10:22:05.721Z,2.60
2023-02-05T10:24:46.803Z,1.87
2023-02-05T10:27:19.409Z,4.50
2023-02-05T10:29:56.858Z,2.80
2023-02-05T10:32:26.694Z,1.83
2023-02-05T10:34:59.734Z,2.43
2023-02-05T10:37:37.392Z,1.60
2023-02-05T10:40:18.872Z,3.80
2023-02-05T10:42:51.991Z,2.53
2023-02-05T10:45:22.879Z,7.57
2023-02-05T10:48:02.502Z,4.93
2023-02-05T10:50:38.271Z,2.73
2023-02-05T10:53:08.392Z,2.07
2023-02-05T10:55:38.145Z,2.40
2023-02-05T10:58:26.089Z,3.10
2023-02-05T11:00:54.959Z,2.70
2023-02-05T11:03:24.165Z,7.40
2023-02-05T11:05:52.827Z,4.33
2023-02-05T11:08:39.546Z,9.33
2023-02-05T11:11:19.797Z,8.00
2023-02-05T11:13:52.609Z,3.93
2023-02-05T11:16:21.460Z,2.20
2023-02-05T11:18:58.843Z,3.33
2023-02-05T11:21:49.447Z,3.10
2023-02-05T11:24:30.227Z,5.53
2023-02-05T11:27:28.189Z,8.30
2023-02-05T11:29:59.217Z,15.00
2023-02-05T11:32:36.907Z,7.07
2023-02-05T11:35:19.700Z,8.37
2023-02-05T11:37:50.252Z,3.93
2023-02-05T11:40:29.002Z,3.00
2023-02-05T11:43:02.311Z,7.17
2023-02-05T11:45:36.203Z,9.70
2023-02-05T11:48:32.622Z,18.20
2023-02-05T11:51:06.595Z,13.93
2023-02-05T11:53:37.440Z,7.07
2023-02-05T11:56:12.084Z,9.20
2023-02-05T11:58:40.823Z,3.63
2023-02-05T12:01:24.218Z,6.77
2023-02-05T12:04:00.413Z,12.13
2023-02-05T12:06:33.921Z,8.33
2023-02-05T12:09:02.825Z,10.90
2023-02-05T12:12:17.232Z,5.73
2023-02-05T12:14:50.897Z,6.17
2023-02-05T12:17:30.414Z,6.60
2023-02-05T12:20:11.625Z,5.80
2023-02-05T12:22:58.517Z,12.20
2023-02-05T12:25:30.371Z,4.83
2023-02-05T12:28:11.461Z,12.00
2023-02-05T12:30:52.754Z,23.77
2023-02-05T12:33:41.573Z,17.90
2023-02-05T12:36:24.092Z,11.37
2023-02-05T12:39:21.432Z,6.90
2023-02-05T12:41:55.047Z,15.10
2023-02-05T12:44:36.556Z,6.93
2023-02-05T12:47:14.334Z,5.37
2023-02-05T12:49:57.990Z,4.70
2023-02-05T12:52:42.429Z,10.70
2023-02-05T12:55:21.441Z,3.03
2023-02-05T12:57:55.066Z,10.30
2023-02-05T13:00:29.626Z,5.67
2023-02-05T13:03:06.031Z,5.73
2023-02-05T13:05:36.502Z,12.70
2023-02-05T13:08:08.846Z,18.73
2023-02-05T13:10:45.338Z,15.10
2023-02-05T13:13:17.766Z,5.60
2023-02-05T13:15:59.993Z,1.40
2023-02-05T13:18:31.507Z,2.53
2023-02-05T13:21:20.258Z,1.70
2023-02-05T13:24:07.022Z,1.97
2023-02-05T13:26:57.579Z,2.70
2023-02-05T13:29:30.576Z,9.70
2023-02-05T13:32:15.366Z,2.03
2023-02-05T13:34:44.954Z,3.00
2023-02-05T13:37:29.834Z,3.47
2023-02-05T13:40:28.925Z,5.63
2023-02-05T13:43:41.946Z,5.47
2023-02-05T13:46:25.845Z,6.70
2023-02-05T13:49:36.952Z,17.30
2023-02-05T13:52:20.009Z,2.70
2023-02-05T13:55:14.559Z,5.23
2023-02-05T13:58:20.841Z,5.57
2023-02-05T14:01:01.042Z,10.10
2023-02-05T14:03:38.485Z,4.10
2023-02-05T14:06:29.814Z,6.57
2023-02-05T14:09:19.429Z,6.13
2023-02-05T14:11:54.781Z,4.87
2023-02-05T14:14:36.556Z,7.10
2023-02-05T14:17:43.667Z,5.33
2023-02-05T14:20:34.605Z,4.73
2023-02-05T14:23:05.133Z,2.77
2023-02-05T14:26:11.942Z,3.63
2023-02-05T14:28:51.855Z,3.40
2023-02-05T14:31:55.573Z,3.57
2023-02-05T14:34:48.881Z,9.93
2023-02-05T14:37:26.642Z,13.37
2023-02-05T14:39:55.283Z,29.70
2023-02-05T14:42:29.545Z,91.33
2023-02-05T14:45:00.778Z,10.57
2023-02-05T14:47:33.337Z,5.10
2023-02-05T14:50:05.492Z,4.30
2023-02-05T14:52:36.119Z,3.13
2023-02-05T14:55:08.738Z,7.53
2023-02-05T14:57:49.319Z,9.77
2023-02-05T15:00:35.381Z,62.60
2023-02-05T15:03:24.531Z,20.33
2023-02-05T15:06:04.888Z,19.20
2023-02-05T15:08:47.531Z,17.27
2023-02-05T15:11:30.456Z,22.33
2023-02-05T15:14:36.954Z,19.47
2023-02-05T15:17:43.819Z,6.50
2023-02-05T15:20:30.932Z,2.67
2023-02-05T15:23:07.860Z,8.67
2023-02-05T15:25:42.692Z,3.80
2023-02-05T15:28:48.710Z,6.73
2023-02-05T15:31:23.944Z,9.43
2023-02-05T15:33:59.934Z,1.53
2023-02-05T15:36:38.247Z,1.40
2023-02-05T15:39:35.377Z,1.77
2023-02-05T15:42:05.451Z,1.60
2023-02-05T15:44:35.668Z,2.60
2023-02-05T15:47:09.868Z,14.63
2023-02-05T15:49:42.209Z,4.43
2023-02-05T15:52:18.392Z,7.60
2023-02-05T15:54:47.102Z,10.17
2023-02-05T15:57:20.632Z,7.90
2023-02-05T15:59:49.290Z,5.73
2023-02-05T16:02:21.378Z,6.70
2023-02-05T16:05:09.843Z,2.40
2023-02-05T16:07:42.632Z,4.67
2023-02-05T16:10:20.863Z,2.10
2023-02-05T16:12:59.986Z,10.83
2023-02-05T16:15:35.461Z,7.10
2023-02-05T16:18:09.488Z,5.90
2023-02-05T16:20:45.081Z,6.50
2023-02-05T16:23:21.303Z,3.13
2023-02-05T16:25:53.449Z,3.30
2023-02-05T16:28:24.390Z,2.63
2023-02-05T16:30:56.828Z,24.47
2023-02-05T16:33:32.672Z,8.00
2023-02-05T16:36:03.126Z,4.20
2023-02-05T16:38:31.850Z,9.67
2023-02-05T16:41:02.171Z,11.87
2023-02-05T16:43:33.419Z,18.57
2023-02-05T16:46:34.144Z,13.77
2023-02-05T16:49:05.046Z,5.70
2023-02-05T16:51:37.525Z,4.13
2023-02-05T16:54:28.467Z,4.00
2023-02-05T16:57:00.977Z,20.07
2023-02-05T17:00:30.737Z,37.50
2023-02-05T17:03:01.160Z,26.00
2023-02-05T17:05:34.377Z,9.87
2023-02-05T17:08:07.068Z,5.60
2023-02-05T17:10:50.077Z,4.83
2023-02-05T17:13:29.553Z,6.30
2023-02-05T17:15:58.459Z,9.00
2023-02-05T17:18:32.570Z,18.43
2023-02-05T17:21:24.237Z,8.23
2023-02-05T17:23:53.180Z,5.37
2023-02-05T17:26:22.465Z,9.87
2023-02-05T17:28:55.690Z,3.70
2023-02-05T17:31:26.675Z,11.83
2023-02-05T17:33:56.341Z,12.23
2023-02-05T17:36:34.916Z,2.90
2023-02-05T17:39:05.870Z,10.13
2023-02-05T17:41:55.598Z,5.47
2023-02-05T17:44:24.195Z,3.30
2023-02-05T17:46:54.390Z,2.10
2023-02-05T17:49:23.231Z,9.00
2023-02-05T17:51:53.184Z,11.23
2023-02-05T17:55:22.676Z,9.77
2023-02-05T17:57:51.207Z,21.70
2023-02-05T18:00:21.760Z,30.23
2023-02-05T18:02:50.725Z,54.30
2023-02-05T18:05:20.628Z,13.23
2023-02-05T18:07:52.588Z,6.27
2023-02-05T18:10:23.831Z,7.60
2023-02-05T18:12:52.724Z,3.23
2023-02-05T18:15:23.588Z,4.60
2023-02-05T18:17:52.381Z,7.40
2023-02-05T18:20:21.568Z,7.77
2023-02-05T18:22:52.070Z,10.70
2023-02-05T18:25:21.132Z,3.63
2023-02-05T18:27:50.448Z,2.53
2023-02-05T18:30:19.008Z,3.30
2023-02-05T18:32:48.180Z,6.23
2023-02-05T18:35:17.059Z,6.17
2023-02-05T18:37:46.388Z,3.80
2023-02-05T18:40:16.700Z,2.57
2023-02-05T18:42:47.301Z,6.53
2023-02-05T18:45:17.180Z,2.40
2023-02-05T18:47:46.771Z,5.73
2023-02-05T18:50:16.601Z,6.83
2023-02-05T18:52:45.746Z,19.07
2023-02-05T18:55:18.667Z,23.20
2023-02-05T18:57:52.960Z,58.53
2023-02-05T19:00:25.046Z,66.37
2023-02-05T19:02:56.361Z,52.90
2023-02-05T19:05:27.091Z,22.27
2023-02-05T19:08:01.994Z,16.13
2023-02-05T19:10:34.473Z,10.30
2023-02-05T19:13:03.521Z,6.83
2023-02-05T19:15:33.146Z,4.83
2023-02-05T19:18:01.978Z,5.40
2023-02-05T19:20:35.038Z,4.90
2023-02-05T19:23:07.171Z,7.43
2023-02-05T19:25:42.478Z,6.40
2023-02-05T19:28:11.450Z,10.10
2023-02-05T19:30:39.905Z,8.43
2023-02-05T19:33:08.535Z,5.80
2023-02-05T19:35:37.342Z,22.03
2023-02-05T19:38:06.206Z,11.73
2023-02-05T19:40:36.566Z,20.47
2023-02-05T19:43:07.337Z,14.23
2023-02-05T19:45:38.180Z,16.00
2023-02-05T19:48:07.339Z,5.17
2023-02-05T19:50:45.131Z,9.60
2023-02-05T19:53:14.348Z,9.40
2023-02-05T19:55:45.860Z,12.17
2023-02-05T19:58:18.456Z,9.27
2023-02-05T20:00:50.106Z,9.07
2023-02-05T20:03:30.432Z,8.40
2023-02-05T20:06:01.249Z,6.90
2023-02-05T20:08:32.445Z,11.17
2023-02-05T20:11:03.990Z,16.17
2023-02-05T20:13:37.176Z,10.57
2023-02-05T20:16:08.082Z,6.80
2023-02-05T20:18:36.870Z,12.03
2023-02-05T20:21:07.154Z,8.43
2023-02-05T20:23:35.891Z,6.63
2023-02-05T20:26:08.275Z,5.87
2023-02-05T20:29:00.153Z,9.00
2023-02-05T20:31:34.851Z,4.37
2023-02-05T20:34:04.598Z,2.87
2023-02-05T20:36:38.430Z,3.40
2023-02-05T20:39:09.253Z,2.07
2023-02-05T20:41:38.043Z,4.07
2023-02-05T20:44:08.584Z,8.40
2023-02-05T20:47:02.268Z,5.60
2023-02-05T20:49:31.260Z,8.33
2023-02-05T20:52:01.844Z,17.33
2023-02-05T20:54:33.295Z,5.07
2023-02-05T20:57:01.936Z,2.90
2023-02-05T20:59:38.692Z,6.27
2023-02-05T21:02:11.384Z,2.60
2023-02-05T21:04:40.151Z,8.37
2023-02-05T21:07:08.841Z,3.00
2023-02-05T21:09:39.379Z,8.00
2023-02-05T21:12:10.139Z,5.70
2023-02-05T21:14:40.993Z,11.40
2023-02-05T21:17:10.743Z,46.50
2023-02-05T21:20:29.045Z,21.07
2023-02-05T21:23:14.663Z,15.53
2023-02-05T21:25:43.508Z,4.13
2023-02-05T21:28:12.750Z,4.47
2023-02-05T21:30:51.491Z,9.97
2023-02-05T21:33:20.153Z,4.10
2023-02-05T21:35:48.891Z,7.30
2023-02-05T21:38:17.556Z,3.30
2023-02-05T21:40:46.608Z,6.53
2023-02-05T21:43:18.054Z,8.03
2023-02-05T21:45:47.924Z,11.27
2023-02-05T21:48:16.488Z,7.40
2023-02-05T21:50:44.893Z,5.50
2023-02-05T21:53:16.382Z,4.13
2023-02-05T21:55:45.267Z,4.10
2023-02-05T21:58:13.860Z,4.03
2023-02-05T22:00:45.273Z,4.10
2023-02-05T22:03:15.630Z,4.30
2023-02-05T22:05:47.315Z,2.80
2023-02-05T22:08:16.197Z,3.80
2023-02-05T22:10:45.099Z,3.83
2023-02-05T22:13:13.892Z,17.60
2023-02-05T22:15:44.772Z,21.93
2023-02-05T22:18:14.776Z,18.63
2023-02-05T22:20:44.529Z,13.87
2023-02-05T22:23:13.505Z,9.47
2023-02-05T22:25:47.690Z,17.00
2023-02-05T22:28:16.272Z,4.27
2023-02-05T22:30:47.728Z,5.73
2023-02-05T22:33:20.792Z,9.50
2023-02-05T22:35:53.388Z,7.50
2023-02-05T22:38:21.957Z,8.37
2023-02-05T22:40:50.581Z,7.33
2023-02-05T22:43:19.138Z,8.40
2023-02-05T22:49:41.031Z,6.50
2023-02-05T22:52:09.675Z,8.37
2023-02-05T22:54:38.262Z,7.23
2023-02-05T22:57:11.393Z,7.63
2023-02-05T22:59:40.060Z,12.77
2023-02-05T23:02:17.377Z,11.50
2023-02-05T23:04:47.667Z,5.50
2023-02-05T23:07:16.488Z,7.37
2023-02-05T23:09:46.261Z,10.40
2023-02-05T23:12:15.036Z,3.53
2023-02-05T23:14:45.653Z,5.83
2023-02-05T23:17:14.381Z,5.50
2023-02-05T23:19:43.060Z,10.90
2023-02-05T23:22:12.959Z,19.43
2023-02-05T23:24:42.110Z,19.53
2023-02-05T23:27:10.857Z,10.50
2023-02-05T23:29:39.835Z,5.20
2023-02-05T23:32:15.085Z,4.53
2023-02-05T23:34:43.905Z,3.17
2023-02-05T23:37:14.020Z,6.73
2023-02-05T23:39:43.563Z,3.47
2023-02-05T23:42:12.170Z,5.10
2023-02-05T23:44:40.741Z,6.80
2023-02-05T23:47:09.607Z,3.50
2023-02-05T23:49:38.277Z,4.17
2023-02-05T23:52:32.968Z,3.63
2023-02-05T23:55:01.793Z,2.57
2023-02-05T23:57:30.675Z,3.27
2023-02-05T23:59:59.458Z,4.60
